ADDS METAR Data INFO
IDs: Format: Raw Decoded Include TAF

Data at: 0608 UTC 25 Jun 2018

KBPG 250555Z AUTO 17020G28KT 10SM CLR 30/13 A2984 RMK AO2 T03000134 10420 20300 404230253
KBPG 250535Z AUTO 16022G27KT 10SM CLR 31/13 A2984 RMK AO2 T03050130
KBPG 250515Z AUTO 16021G28KT 10SM CLR 31/13 A2985 RMK AO2 T03100126
KBPG 250455Z AUTO 16019G24KT 10SM CLR 31/12 A2985 RMK AO2 T03120120
KBPG 250435Z AUTO 16020G27KT 10SM CLR 32/11 A2985 RMK AO2 T03160113
KBPG 250415Z AUTO 16019G23KT 10SM CLR 32/11 A2985 RMK AO2 T03200113
KBPG 250355Z AUTO 15020KT 10SM CLR 32/12 A2984 RMK AO2 T03220117
KBPG 250335Z AUTO 16019G22KT 10SM CLR 33/12 A2983 RMK AO2 T03260123
KBPG 250315Z AUTO 16023G28KT 7SM CLR 33/13 A2982 RMK AO2 T03320126
KBPG 250255Z AUTO 16022G28KT 7SM CLR 34/14 A2980 RMK AO2 T03350139
KBPG 250235Z AUTO 16023G29KT 5SM CLR 34/14 A2978 RMK AO2 LTG DSNT NE T03380141
KBPG 250215Z AUTO 17021G24KT 7SM CLR 35/15 A2977 RMK AO2 LTG DSNT NE AND E T03510145
KBPG 250155Z AUTO 16021G30KT 3SM SCT110 37/14 A2975 RMK AO2 LTG DSNT NE AND E T03650143
KBPG 250135Z AUTO 16021G30KT 4SM SCT110 37/14 A2974 RMK AO2 LTG DSNT NE THRU S T03720141
KBPG 250115Z AUTO 14022G31KT 3SM CLR 38/14 A2973 RMK AO2 T03800140
KBPG 250055Z AUTO 15020G26KT 7SM CLR 39/13 A2972 RMK AO2 LTG DSNT NE AND E T03910133
KBPG 250035Z AUTO 16021G27KT 7SM SCT110 40/13 A2972 RMK AO2 LTG DSNT NE AND E T03990130
KBPG 250015Z AUTO 17018G21KT 10SM CLR 40/13 A2972 RMK AO2 T04040125
KBPG 242355Z AUTO 21014G18KT 7SM CLR 42/04 A2971 RMK AO2 T04190036 10423 20366
KBPG 242335Z AUTO 22018G23KT 10SM CLR 42/04 A2972 RMK AO2 T04160036
KBPG 242315Z AUTO 24020G25KT 10SM CLR 42/04 A2972 RMK AO2 T04200040
KBPG 242255Z AUTO 22015G19KT 10SM CLR 42/04 A2972 RMK AO2 T04210041
KBPG 242235Z AUTO 25017G22KT 10SM CLR 42/04 A2973 RMK AO2 T04190038
KBPG 242215Z AUTO 24015G21KT 10SM CLR 42/05 A2974 RMK AO2 T04180045
KBPG 242155Z AUTO 21014G23KT 10SM CLR 42/05 A2974 RMK AO2 T04200051
KBPG 242135Z AUTO 23015G25KT 7SM CLR 42/05 A2975 RMK AO2 T04190054
KBPG 242115Z AUTO 22018G27KT 7SM CLR 42/05 A2976 RMK AO2 T04170050
KBPG 242055Z AUTO 20019G25KT 10SM CLR 42/07 A2976 RMK AO2 T04180069
KBPG 242035Z AUTO 24016G20KT 7SM CLR 41/09 A2976 RMK AO2 LTG DSNT NW T04110087
KBPG 242015Z AUTO 23014G20KT 200V260 7SM CLR 41/10 A2977 RMK AO2 T04050099
KBPG 241955Z AUTO 21015G20KT 10SM CLR 40/11 A2977 RMK AO2 LTG DSNT NW T04030112
KBPG 241935Z AUTO 21016G19KT 10SM CLR 40/12 A2978 RMK AO2 T03950121
KBPG 241915Z AUTO 21013G21KT 10SM CLR 40/12 A2978 RMK AO2 T03960120
KBPG 241855Z AUTO 24013G22KT 10SM CLR 39/11 A2979 RMK AO2 T03920107
KBPG 241835Z AUTO 22018G23KT 7SM CLR 39/11 A2980 RMK AO2 T03890112
KBPG 241815Z AUTO 19013G21KT 10SM CLR 38/16 A2980 RMK AO2 T03780155
KBPG 241755Z AUTO 20014G22KT 10SM CLR 37/16 A2981 RMK AO2 T03670161 10367 20253
KBPG 241735Z AUTO 21015G23KT 10SM CLR 36/17 A2981 RMK AO2 T03560166
KBPG 241715Z AUTO 21017G26KT 7SM CLR 35/17 A2982 RMK AO2 T03510166
KBPG 241655Z AUTO 20017G26KT 7SM CLR 35/17 A2981 RMK AO2 T03460166
KBPG 241635Z AUTO 20015KT 7SM CLR 33/18 A2982 RMK AO2 T03340182
KBPG 241615Z AUTO 19019G25KT 10SM CLR 32/20 A2982 RMK AO2 T03220195
KBPG 241555Z AUTO 19020G25KT 7SM CLR 32/20 A2982 RMK AO2 T03170198
KBPG 241535Z AUTO 19022G27KT 10SM CLR 31/20 A2982 RMK AO2 T03050201
KBPG 241515Z AUTO 18022G28KT 5SM CLR 30/21 A2982 RMK AO2 T02950205
KBPG 241455Z AUTO 18021G27KT 10SM CLR 29/21 A2983 RMK AO2 T02900206
KBPG 241435Z AUTO 19022G29KT 7SM CLR 28/21 A2983 RMK AO2 T02820207
KBPG 241415Z AUTO 18022KT 7SM CLR 28/21 A2983 RMK AO2 T02780207
KBPG 241355Z AUTO 18021KT 7SM CLR 27/21 A2983 RMK AO2 T02720208
KBPG 241335Z AUTO 18021G27KT 7SM CLR 27/21 A2983 RMK AO2 T02670208
KBPG 241315Z AUTO 18019G23KT 7SM CLR 27/21 A2982 RMK AO2 T02650208
KBPG 241255Z AUTO 18022G25KT 10SM CLR 26/21 A2982 RMK AO2 T02590208
KBPG 241235Z AUTO 17022G26KT 10SM CLR 26/21 A2980 RMK AO2 T02550208
KBPG 241215Z AUTO 16019G27KT 10SM CLR 25/21 A2980 RMK AO2 T02540207
KBPG 241155Z AUTO 16020G26KT 7SM CLR 25/21 A2980 RMK AO2 T02530208 10308 20253
KBPG 241135Z AUTO 15018KT 10SM CLR 26/21 A2980 RMK AO2 T02560205
KBPG 241115Z AUTO 16020G26KT 10SM CLR 26/20 A2979 RMK AO2 T02600203
KBPG 241055Z AUTO 17022G29KT 10SM CLR 26/20 A2979 RMK AO2 T02610201
KBPG 241035Z AUTO 17024G28KT 10SM CLR 26/20 A2980 RMK AO2 T02630197
KBPG 241015Z AUTO 17020G26KT 10SM CLR 27/19 A2980 RMK AO2 T02660193
KBPG 240955Z AUTO 17023G28KT 10SM CLR 27/19 A2980 RMK AO2 T02700191
KBPG 240935Z AUTO 16023G27KT 7SM CLR 27/19 A2980 RMK AO2 T02720190
KBPG 240915Z AUTO 16024G32KT 7SM CLR 28/19 A2980 RMK AO2 T02750190
KBPG 240855Z AUTO 15024G29KT 7SM CLR 28/19 A2980 RMK AO2 T02780190
KBPG 240835Z AUTO 16024G32KT 7SM CLR 28/19 A2980 RMK AO2 T02810192
KBPG 240815Z AUTO 15028KT 5SM CLR 29/19 A2980 RMK AO2 T02850193
KBPG 240755Z AUTO 16023G33KT 4SM CLR 29/19 A2980 RMK AO2 T02870192
KBPG 240735Z AUTO 15025G31KT 5SM CLR 29/19 A2980 RMK AO2 T02900189
KBPG 240715Z AUTO 15024G31KT 3SM CLR 29/19 A2980 RMK AO2 T02930188
KBPG 240655Z AUTO 15023G32KT 4SM CLR 30/19 A2980 RMK AO2 T02950185
KBPG 240635Z AUTO 14025G31KT 4SM CLR 30/18 A2981 RMK AO2 T03000181
KBPG 240615Z AUTO 14024G29KT 7SM CLR 31/17 A2980 RMK AO2 T03050171
KBPG 240555Z AUTO 14022G30KT 7SM CLR 31/17 A2980 RMK AO2 T03090166 10409 20309 404180247
KBPG 240535Z AUTO 14021G28KT 7SM CLR 32/16 A2979 RMK AO2 LTG DSNT E T03150159
KBPG 240515Z AUTO 15019G25KT 10SM CLR 32/17 A2979 RMK AO2 T03240165
KBPG 240455Z AUTO 15016KT 10SM CLR 33/17 A2979 RMK AO2 T03300165
KBPG 240435Z AUTO 15014KT 10SM CLR 33/16 A2979 RMK AO2 T03330164
KBPG 240415Z AUTO 16015KT 10SM CLR 34/16 A2977 RMK AO2 T03350163
KBPG 240355Z AUTO 15013G19KT 10SM CLR 34/16 A2977 RMK AO2 T03360164
KBPG 240335Z AUTO 16012KT 10SM CLR 33/17 A2975 RMK AO2 LTG DSNT NE T03330167
KBPG 240315Z AUTO 16015KT 10SM CLR 33/17 A2973 RMK AO2 LTG DSNT NE T03320166
KBPG 240255Z AUTO 15012KT 10SM CLR 33/16 A2972 RMK AO2 LTG DSNT NE AND E T03300158
KBPG 240235Z AUTO 16009KT 10SM CLR 33/14 A2971 RMK AO2 T03320144
KBPG 240215Z AUTO 14011KT 10SM CLR 34/14 A2971 RMK AO2 LTG DSNT E T03350136
KBPG 240155Z AUTO 14015G22KT 10SM CLR 34/16 A2971 RMK AO2 LTG DSNT NE AND SE T03410155
KBPG 240135Z AUTO 13022G32KT 7SM CLR 35/15 A2971 RMK AO2 LTG DSNT NE THRU SE T03460147
KBPG 240115Z AUTO 13022G27KT 7SM CLR 36/13 A2971 RMK AO2 LTG DSNT NE THRU S T03620130
KBPG 240055Z AUTO 11010G16KT 080V150 10SM CLR 40/08 A2970 RMK AO2 LTG DSNT NE THRU SE T03970078
KBPG 240035Z AUTO 00000KT 10SM CLR 40/05 A2970 RMK AO2 LTG DSNT NE THRU S T04020045
KBPG 240015Z AUTO 28010KT 7SM VCTS CLR 41/02 A2969 RMK AO2 LTG DSNT NE THRU SE T04080024
KBPG 232355Z AUTO 23004KT 10SM CLR 41/01 A2969 RMK AO2 LTG DSNT NE THRU SE T04090010 10418 20356
KBPG 232335Z AUTO 25008G14KT 10SM VCTS CLR 41/02 A2970 RMK AO2 LTG DSNT E AND SE T04130020
KBPG 232315Z AUTO 22009G14KT 10SM CLR 42/02 A2970 RMK AO2 LTG DSNT E T04160022
KBPG 232255Z AUTO 22013G18KT 10SM CLR 42/04 A2971 RMK AO2 T04160036
KBPG 232235Z AUTO 24007G16KT 10SM CLR 41/05 A2972 RMK AO2 T04120048
KBPG 232215Z AUTO 23011G16KT 10SM CLR 42/06 A2972 RMK AO2 T04160055
KBPG 232155Z AUTO 23009KT 10SM CLR 41/05 A2972 RMK AO2 T04100050
KBPG 232135Z AUTO 24008KT 210V280 10SM CLR 41/07 A2973 RMK AO2 T04130067
KBPG 232115Z AUTO 20007G16KT 10SM CLR 41/10 A2973 RMK AO2 T04120102
KBPG 232055Z AUTO 24005G09KT 10SM CLR 40/11 A2973 RMK AO2 T04040114
KBPG 232035Z AUTO 17009KT 40/12 A2974 RMK AO2 T03970115
KBPG 232015Z AUTO 23010G17KT 10SM CLR 40/12 A2975 RMK AO2 T03980115
KBPG 231955Z AUTO 19010G15KT 10SM CLR 39/15 A2976 RMK AO2 T03860150
KBPG 231935Z AUTO 19010G15KT 10SM CLR 38/15 A2977 RMK AO2 T03820148
KBPG 231915Z AUTO 20012KT 7SM CLR 38/15 A2977 RMK AO2 T03820146
KBPG 231855Z AUTO 18013G16KT 7SM CLR 38/14 A2978 RMK AO2 T03760141
KBPG 231835Z AUTO 16012G17KT 7SM CLR 37/16 A2978 RMK AO2 T03700156
KBPG 231815Z AUTO 20010G23KT 10SM CLR 36/16 A2979 RMK AO2 T03640161